< < Back
Terminal Aerodrome Forecast


Current Version              Previous Versions:   1  2  3  4  5  6  7  8  9  

Terminal Aerodrome Forecast

158
FTUS44 KBMX 012300
TAFBHM
TAF
KBHM 012325Z 0200/0224 19003KT P6SM SCT150
     FM021400 23005KT P6SM SCT050=

Latest METAR

866
SAUS70 KWBC 021100 RRE
MTRBHM
METAR KBHM 021053Z 00000KT 10SM CLR 25/22 A3011 RMK AO2 SLP186 T02500217
$


USA.gov is the U.S. government's official web portal to all federal, state and local government web resources and services.